Theux, Belgium
Current Conditions -  °F | °C
As of 9:25 AM on Wednesday 26 Nov 2014 (Local Time) from EBLB Reporting Station
Broken Clouds Broken Clouds  
Wind Chill: 36°   Ceiling: 400
Heat Index: 39°   Visibility: 3mi
Dew Point: 37°   Wind: 5mph
Humidity: 93%   Direction: 180°S
Pressure: 29.94"   Gusts: NA
Location:  50.53°N, 5.81°E
Report Text: EBLB 260825Z AUTO 18004KT 5000 BKN004/// BKN006/// 04/03 Q1014 YLO
Loading
Personal Weather Stations






























Interactive Weather Map New forecast layout! Learn more

10-Day Weather Forecast

Advertisements
Track Severe Weather on mobile